Time;durP1;ratioP1;P1;durP2;ratioP2;P2;SDS_P1;SDS_P2;PMS_P1;PMS_P2;Temp;Humidity;BMP_temperature;BMP_pressure;BME280_temperature;BME280_humidity;BME280_pressure;Samples;Min_cycle;Max_cycle;Signal;HPM_P1;HPM_P2
2022/07/11 00:00:20;;;;;;;3.28;2.05;;;;;;;-148.22;100.00;64452.44;5013012;28;20532;-65
2022/07/11 00:02:47;;;;;;;2.75;1.30;;;;;;;-148.22;100.00;64452.44;5023655;28;20068;-65
2022/07/11 00:05:14;;;;;;;2.88;1.55;;;;;;;-148.22;100.00;64452.44;5025599;28;20048;-65
2022/07/11 00:07:40;;;;;;;5.00;2.25;;;;;;;-148.22;100.00;64452.44;5006628;28;20093;-65
2022/07/11 00:10:07;;;;;;;3.92;2.13;;;;;;;-148.22;100.00;64452.44;5015471;28;20049;-65
2022/07/11 00:12:34;;;;;;;4.38;1.98;;;;;;;-148.22;100.00;64452.44;5006594;28;20353;-64
2022/07/11 00:15:00;;;;;;;2.83;1.55;;;;;;;-148.22;100.00;64452.44;5014127;28;20500;-65
2022/07/11 00:17:27;;;;;;;3.00;1.67;;;;;;;-148.22;100.00;64452.44;5025688;28;20078;-65
2022/07/11 00:19:54;;;;;;;3.60;1.52;;;;;;;-148.22;100.00;64452.44;5026045;28;20416;-64
2022/07/11 00:22:21;;;;;;;3.15;1.58;;;;;;;-148.22;100.00;64452.44;5024207;28;20044;-64
2022/07/11 00:24:47;;;;;;;2.95;1.70;;;;;;;-148.22;100.00;64452.44;5017642;28;20532;-64
2022/07/11 00:27:14;;;;;;;4.25;1.60;;;;;;;-148.22;100.00;64452.44;5006398;28;20315;-64
2022/07/11 00:29:40;;;;;;;6.05;1.58;;;;;;;-148.22;100.00;64452.44;5012773;28;20045;-64
2022/07/11 00:32:07;;;;;;;6.70;1.80;;;;;;;-148.22;100.00;64452.44;5034445;28;20045;-64
2022/07/11 00:34:34;;;;;;;3.60;1.48;;;;;;;-148.22;100.00;64452.44;5039256;28;20235;-64
2022/07/11 00:37:01;;;;;;;2.80;1.55;;;;;;;-148.22;100.00;64452.44;5025034;28;20484;-64
2022/07/11 00:39:27;;;;;;;4.85;1.80;;;;;;;-148.22;100.00;64452.44;5022025;28;20053;-64
2022/07/11 00:41:54;;;;;;;3.20;1.60;;;;;;;-148.22;100.00;64452.44;5006392;28;20050;-65
2022/07/11 00:44:20;;;;;;;3.50;1.90;;;;;;;-148.22;100.00;64452.44;5006599;28;20049;-65
2022/07/11 00:46:47;;;;;;;5.65;1.75;;;;;;;-148.22;100.00;64452.44;5009046;28;20559;-64
2022/07/11 00:49:14;;;;;;;5.47;2.10;;;;;;;-148.22;100.00;64452.44;5012503;28;20103;-64
2022/07/11 00:51:41;;;;;;;3.75;1.90;;;;;;;-148.22;100.00;64452.44;5030090;28;20056;-64
2022/07/11 00:54:10;;;;;;;4.40;2.00;;;;;;;-148.22;100.00;64452.44;5028377;28;20394;-64
2022/07/11 00:56:37;;;;;;;3.08;1.70;;;;;;;-148.22;100.00;64452.44;5021757;28;20117;-64
2022/07/11 00:59:04;;;;;;;3.28;1.60;;;;;;;-148.22;100.00;64452.44;5027811;28;20048;-64
2022/07/11 01:01:33;;;;;;;2.95;1.70;;;;;;;-148.22;100.00;64452.44;5029376;28;20393;-64
2022/07/11 01:04:21;;;;;;;4.15;1.95;;;;;;;-148.22;100.00;64452.44;5025542;28;20044;-64
2022/07/11 01:06:47;;;;;;;4.45;1.95;;;;;;;-148.22;100.00;64452.44;5042421;28;20049;-64
2022/07/11 01:09:14;;;;;;;3.63;2.00;;;;;;;-148.22;100.00;64452.44;5021222;28;20104;-64
2022/07/11 01:11:41;;;;;;;3.53;1.98;;;;;;;-148.22;100.00;64452.44;5016603;28;20045;-64
2022/07/11 01:14:08;;;;;;;4.15;2.00;;;;;;;-148.22;100.00;64452.44;5020408;28;20060;-64
2022/07/11 01:16:34;;;;;;;4.13;1.88;;;;;;;-148.22;100.00;64452.44;5019013;28;20038;-64
2022/07/11 01:19:01;;;;;;;5.00;1.98;;;;;;;-148.22;100.00;64452.44;5016213;28;20041;-64
2022/07/11 01:21:40;;;;;;;4.05;2.00;;;;;;;-148.22;100.00;64452.44;5029172;28;20045;-64
2022/07/11 01:24:08;;;;;;;3.33;1.80;;;;;;;-148.22;100.00;64452.44;5019079;28;20037;-64
2022/07/11 01:26:35;;;;;;;4.28;2.00;;;;;;;-148.22;100.00;64452.44;5008349;28;20061;-64
2022/07/11 01:29:09;;;;;;;3.88;2.10;;;;;;;-148.22;100.00;64452.44;5018314;28;20042;-64
2022/07/11 01:31:43;;;;;;;3.10;2.00;;;;;;;-148.22;100.00;64452.44;5029068;28;20052;-64
2022/07/11 01:34:10;;;;;;;3.75;2.05;;;;;;;-148.22;100.00;64452.44;5029210;28;20042;-64
2022/07/11 01:36:37;;;;;;;3.65;1.98;;;;;;;-148.22;100.00;64452.44;5029276;28;20068;-64
2022/07/11 01:39:04;;;;;;;3.50;1.92;;;;;;;-148.22;100.00;64452.44;5029111;28;20045;-64
2022/07/11 01:41:30;;;;;;;3.63;2.25;;;;;;;-148.22;100.00;64452.44;5010994;28;20045;-65
2022/07/11 01:43:57;;;;;;;3.17;2.10;;;;;;;-148.22;100.00;64452.44;5009313;28;20041;-64
2022/07/11 01:46:23;;;;;;;4.97;2.20;;;;;;;-148.22;100.00;64452.44;5023648;28;20279;-64
2022/07/11 01:48:50;;;;;;;6.38;2.50;;;;;;;-148.22;100.00;64452.44;5029008;28;20041;-64
2022/07/11 01:51:17;;;;;;;4.20;2.30;;;;;;;-148.22;100.00;64452.44;5026326;28;20128;-64
2022/07/11 01:53:44;;;;;;;4.00;2.58;;;;;;;-148.22;100.00;64452.44;5027737;28;20413;-64
2022/07/11 01:56:12;;;;;;;4.70;2.42;;;;;;;-148.22;100.00;64452.44;5015054;28;20037;-64
2022/07/11 01:58:50;;;;;;;5.07;2.33;;;;;;;-148.22;100.00;64452.44;5007772;28;20057;-64
2022/07/11 02:01:16;;;;;;;4.03;2.50;;;;;;;-148.22;100.00;64452.44;5021116;28;20132;-64
2022/07/11 02:03:43;;;;;;;3.90;2.47;;;;;;;-148.22;100.00;64452.44;5028565;28;20045;-64
2022/07/11 02:06:11;;;;;;;4.10;2.50;;;;;;;-148.22;100.00;64452.44;5015575;28;20076;-64
2022/07/11 02:08:38;;;;;;;5.97;2.80;;;;;;;-148.22;100.00;64452.44;5015981;28;20060;-64
2022/07/11 02:11:04;;;;;;;4.60;2.83;;;;;;;-148.22;100.00;64452.44;5016917;28;20394;-64
2022/07/11 02:13:31;;;;;;;5.57;3.00;;;;;;;-148.22;100.00;64452.44;5009044;28;20048;-64
2022/07/11 02:15:57;;;;;;;4.40;2.47;;;;;;;-148.22;100.00;64452.44;5024170;28;20048;-64
2022/07/11 02:18:24;;;;;;;4.40;2.83;;;;;;;-148.22;100.00;64452.44;5028680;28;20520;-64
2022/07/11 02:20:51;;;;;;;4.80;3.05;;;;;;;-148.22;100.00;64452.44;5018989;28;20068;-64
2022/07/11 02:23:19;;;;;;;5.45;2.72;;;;;;;-148.22;100.00;64452.44;5023596;28;20452;-64
2022/07/11 02:25:47;;;;;;;6.57;2.70;;;;;;;-148.22;100.00;64452.44;5017421;28;20041;-64
2022/07/11 02:28:14;;;;;;;4.80;3.00;;;;;;;-148.22;100.00;64452.44;5026180;28;20052;-65
2022/07/11 02:30:43;;;;;;;6.82;3.20;;;;;;;-148.22;100.00;64452.44;5008346;28;20223;-64
2022/07/11 02:33:16;;;;;;;5.63;2.88;;;;;;;-148.22;100.00;64452.44;5043393;28;20504;-64
2022/07/11 02:35:45;;;;;;;5.20;3.30;;;;;;;-148.22;100.00;64452.44;5038112;28;20103;-64
2022/07/11 02:38:14;;;;;;;7.50;3.40;;;;;;;-148.22;100.00;64452.44;5028748;28;20111;-64
2022/07/11 02:40:42;;;;;;;4.93;3.67;;;;;;;-148.22;100.00;64452.44;5022183;28;20096;-64
2022/07/11 02:43:08;;;;;;;6.82;3.50;;;;;;;-148.22;100.00;64452.44;5007303;28;20057;-64
2022/07/11 02:45:36;;;;;;;5.50;3.40;;;;;;;-148.22;100.00;64452.44;5016888;28;20056;-64
2022/07/11 02:48:03;;;;;;;5.03;3.47;;;;;;;-148.22;100.00;64452.44;5027501;28;20046;-64
2022/07/11 02:50:29;;;;;;;4.07;2.90;;;;;;;-148.22;100.00;64452.44;5021867;28;20041;-64
2022/07/11 02:52:56;;;;;;;4.18;2.97;;;;;;;-148.22;100.00;64452.44;5008776;28;20037;-64
2022/07/11 02:55:23;;;;;;;5.47;3.08;;;;;;;-148.22;100.00;64452.44;5008172;28;20041;-64
2022/07/11 02:57:49;;;;;;;4.80;3.10;;;;;;;-148.22;100.00;64452.44;5010731;28;20041;-64
2022/07/11 03:00:17;;;;;;;4.60;3.33;;;;;;;-148.22;100.00;64452.44;5014763;28;20420;-64
2022/07/11 03:02:44;;;;;;;4.47;3.00;;;;;;;-148.22;100.00;64452.44;5023036;28;20652;-64
2022/07/11 03:05:12;;;;;;;5.68;3.35;;;;;;;-148.22;100.00;64452.44;5028270;28;20412;-64
2022/07/11 03:07:39;;;;;;;5.15;3.35;;;;;;;-148.22;100.00;64452.44;5021206;28;20505;-64
2022/07/11 03:10:06;;;;;;;5.40;3.30;;;;;;;-148.22;100.00;64452.44;5024042;28;20091;-64
2022/07/11 03:12:32;;;;;;;6.57;3.90;;;;;;;-148.22;100.00;64452.44;5017651;28;20041;-64
2022/07/11 03:14:59;;;;;;;9.32;3.90;;;;;;;-148.22;100.00;64452.44;5025218;28;20045;-64
2022/07/11 03:17:26;;;;;;;5.50;3.38;;;;;;;-148.22;100.00;64452.44;5026551;28;20041;-64
2022/07/11 03:19:53;;;;;;;5.53;3.35;;;;;;;-148.22;100.00;64452.44;5021841;28;20361;-64
2022/07/11 03:22:19;;;;;;;7.05;4.30;;;;;;;-148.22;100.00;64452.44;5010322;28;20046;-64
2022/07/11 03:24:46;;;;;;;6.95;4.53;;;;;;;-148.22;100.00;64452.44;5027057;28;20096;-64
2022/07/11 03:27:13;;;;;;;6.88;3.65;;;;;;;-148.22;100.00;64452.44;5024896;28;20051;-64
2022/07/11 03:29:40;;;;;;;8.38;4.63;;;;;;;-148.22;100.00;64452.44;5010204;28;20048;-64
2022/07/11 03:32:09;;;;;;;9.95;4.82;;;;;;;-148.22;100.00;64452.44;5033445;28;20515;-64
2022/07/11 03:34:36;;;;;;;6.63;3.90;;;;;;;-148.22;100.00;64452.44;5027536;28;20045;-64
2022/07/11 03:37:03;;;;;;;7.85;3.75;;;;;;;-148.22;100.00;64452.44;5026693;28;20049;-64
2022/07/11 03:39:30;;;;;;;8.55;4.30;;;;;;;-148.22;100.00;64452.44;5020999;28;20107;-64
2022/07/11 03:41:56;;;;;;;5.47;3.70;;;;;;;-148.22;100.00;64452.44;5007384;28;20441;-64
2022/07/11 03:44:24;;;;;;;4.88;3.70;;;;;;;-148.22;100.00;64452.44;5006580;28;20061;-64
2022/07/11 03:46:50;;;;;;;7.78;3.90;;;;;;;-148.22;100.00;64452.44;5028550;28;20038;-64
2022/07/11 03:49:17;;;;;;;6.70;3.80;;;;;;;-148.22;100.00;64452.44;5017391;28;20050;-64
2022/07/11 03:51:43;;;;;;;5.45;3.33;;;;;;;-148.22;100.00;64452.44;5015633;28;20052;-64
2022/07/11 03:54:10;;;;;;;5.68;3.60;;;;;;;-148.22;100.00;64452.44;5015962;28;20041;-64
2022/07/11 03:56:36;;;;;;;6.18;3.88;;;;;;;-148.22;100.00;64452.44;5013229;28;20076;-64
2022/07/11 03:59:03;;;;;;;4.50;3.05;;;;;;;-148.22;100.00;64452.44;5018971;28;20080;-64
2022/07/11 04:01:29;;;;;;;5.50;3.60;;;;;;;-148.22;100.00;64452.44;5021338;28;20048;-64
2022/07/11 04:03:56;;;;;;;6.57;3.80;;;;;;;-148.22;100.00;64452.44;5023822;28;20065;-64
2022/07/11 04:06:23;;;;;;;7.20;4.50;;;;;;;-148.22;100.00;64452.44;5022730;28;20052;-64
2022/07/11 04:08:49;;;;;;;7.53;4.10;;;;;;;-148.22;100.00;64452.44;5023266;28;20468;-64
2022/07/11 04:11:16;;;;;;;5.38;3.60;;;;;;;-148.22;100.00;64452.44;5012409;28;20410;-65
2022/07/11 04:13:42;;;;;;;8.77;3.95;;;;;;;-148.22;100.00;64452.44;5029473;28;20041;-64
2022/07/11 04:16:10;;;;;;;7.32;3.72;;;;;;;-148.22;100.00;64452.44;5018704;28;20052;-64
2022/07/11 04:18:37;;;;;;;4.93;3.50;;;;;;;-148.22;100.00;64452.44;5010327;28;20519;-64
2022/07/11 04:21:04;;;;;;;7.97;3.33;;;;;;;-148.22;100.00;64452.44;5012078;28;20081;-64
2022/07/11 04:23:35;;;;;;;5.57;3.80;;;;;;;-148.22;100.00;64452.44;5033032;28;20051;-64
2022/07/11 04:26:02;;;;;;;6.45;3.50;;;;;;;-148.22;100.00;64452.44;5008610;28;20045;-64
2022/07/11 04:28:29;;;;;;;7.07;4.28;;;;;;;-148.22;100.00;64452.44;5019101;28;20499;-64
2022/07/11 04:30:55;;;;;;;6.03;3.75;;;;;;;-148.22;100.00;64452.44;5024351;28;20120;-64
2022/07/11 04:33:22;;;;;;;8.23;4.35;;;;;;;-148.22;100.00;64452.44;5044835;28;20037;-64
2022/07/11 04:35:48;;;;;;;8.02;4.97;;;;;;;-148.22;100.00;64452.44;5033864;28;20052;-64
2022/07/11 04:38:16;;;;;;;6.07;4.50;;;;;;;-148.22;100.00;64452.44;5024087;28;20493;-64
2022/07/11 04:40:43;;;;;;;5.15;3.78;;;;;;;-148.22;100.00;64452.44;5014743;28;20437;-65
2022/07/11 04:43:09;;;;;;;6.13;4.20;;;;;;;-148.22;100.00;64452.44;5022356;28;20591;-64
2022/07/11 04:45:36;;;;;;;5.85;3.85;;;;;;;-148.22;100.00;64452.44;5017904;28;20069;-65
2022/07/11 04:48:03;;;;;;;6.78;4.10;;;;;;;-148.22;100.00;64452.44;5014091;28;20033;-64
2022/07/11 04:50:29;;;;;;;6.20;4.05;;;;;;;-148.22;100.00;64452.44;5014660;28;20042;-64
2022/07/11 04:52:56;;;;;;;8.07;3.97;;;;;;;-148.22;100.00;64452.44;5015740;28;20053;-64
2022/07/11 04:55:23;;;;;;;5.20;4.10;;;;;;;-148.22;100.00;64452.44;5028230;28;20045;-64
2022/07/11 04:57:50;;;;;;;6.80;3.92;;;;;;;-148.22;100.00;64452.44;5013357;28;20414;-64
2022/07/11 05:00:17;;;;;;;6.93;3.90;;;;;;;-148.22;100.00;64452.44;5015543;28;20037;-64
2022/07/11 05:02:44;;;;;;;6.90;4.05;;;;;;;-148.22;100.00;64452.44;5025989;28;20052;-64
2022/07/11 05:05:11;;;;;;;6.25;3.60;;;;;;;-148.22;100.00;64452.44;5013927;28;20117;-64
2022/07/11 05:07:38;;;;;;;5.78;4.07;;;;;;;-148.22;100.00;64452.44;5003304;28;20050;-64
2022/07/11 05:10:05;;;;;;;8.18;4.20;;;;;;;-148.22;100.00;64452.44;5011487;28;20050;-64
2022/07/11 05:12:31;;;;;;;8.90;4.45;;;;;;;-148.22;100.00;64452.44;5021170;28;20045;-64
2022/07/11 05:14:58;;;;;;;6.63;3.70;;;;;;;-148.22;100.00;64452.44;5011210;28;20545;-64
2022/07/11 05:17:26;;;;;;;8.88;3.95;;;;;;;-148.22;100.00;64452.44;5017176;28;20133;-64
2022/07/11 05:19:52;;;;;;;5.50;3.90;;;;;;;-148.22;100.00;64452.44;5029720;28;20052;-64
2022/07/11 05:22:19;;;;;;;5.00;3.80;;;;;;;-148.22;100.00;64452.44;5014713;28;20080;-64
2022/07/11 05:24:46;;;;;;;5.85;3.83;;;;;;;-148.22;100.00;64452.44;5015775;28;20052;-64
2022/07/11 05:27:12;;;;;;;5.82;3.22;;;;;;;-148.22;100.00;64452.44;5017097;28;20049;-64
2022/07/11 05:29:39;;;;;;;5.35;3.55;;;;;;;-148.22;100.00;64452.44;5022904;28;20398;-65
2022/07/11 05:32:06;;;;;;;5.40;3.85;;;;;;;-148.22;100.00;64452.44;5020292;28;20124;-64
2022/07/11 05:34:33;;;;;;;7.95;3.13;;;;;;;-148.22;100.00;64452.44;5011018;28;20531;-64
2022/07/11 05:37:00;;;;;;;4.22;2.97;;;;;;;-148.22;100.00;64452.44;5020524;28;20050;-64
2022/07/11 05:39:26;;;;;;;7.03;3.30;;;;;;;-148.22;100.00;64452.44;5021377;28;20037;-64
2022/07/11 05:41:53;;;;;;;7.30;3.17;;;;;;;-148.22;100.00;64452.44;5008002;28;20048;-64
2022/07/11 05:44:19;;;;;;;5.50;3.17;;;;;;;-148.22;100.00;64452.44;5023067;28;20038;-65
2022/07/11 05:46:46;;;;;;;5.60;3.10;;;;;;;-148.22;100.00;64452.44;5025250;28;20053;-65
2022/07/11 05:49:13;;;;;;;4.63;3.10;;;;;;;-148.22;100.00;64452.44;5006909;28;20041;-65
2022/07/11 05:51:39;;;;;;;5.72;3.05;;;;;;;-148.22;100.00;64452.44;5022009;28;20080;-65
2022/07/11 05:54:06;;;;;;;5.50;3.30;;;;;;;-148.22;100.00;64452.44;5038792;28;20536;-65
2022/07/11 05:56:33;;;;;;;6.00;2.65;;;;;;;-148.22;100.00;64452.44;5016778;28;20120;-65
2022/07/11 05:59:00;;;;;;;4.97;2.85;;;;;;;-148.22;100.00;64452.44;5026616;28;20505;-65
2022/07/11 06:01:27;;;;;;;4.97;3.38;;;;;;;-148.22;100.00;64452.44;5026428;28;20048;-65
2022/07/11 06:04:02;;;;;;;5.65;3.25;;;;;;;-148.22;100.00;64452.44;5025737;28;20041;-65
2022/07/11 06:06:29;;;;;;;4.15;2.70;;;;;;;-148.22;100.00;64452.44;5028166;28;20069;-65
2022/07/11 06:08:55;;;;;;;5.18;2.85;;;;;;;-148.22;100.00;64452.44;5028845;28;20112;-65
2022/07/11 06:11:22;;;;;;;4.25;2.40;;;;;;;-148.22;100.00;64452.44;5028284;28;20050;-65
2022/07/11 06:13:49;;;;;;;5.45;2.60;;;;;;;-148.22;100.00;64452.44;5028731;28;20390;-65
2022/07/11 06:16:17;;;;;;;4.25;2.78;;;;;;;-148.22;100.00;64452.44;5027986;28;20064;-65
2022/07/11 06:18:44;;;;;;;3.78;2.25;;;;;;;-148.22;100.00;64452.44;5027925;28;20041;-65
2022/07/11 06:21:11;;;;;;;4.28;2.33;;;;;;;-148.22;100.00;64452.44;5028131;28;20045;-65
2022/07/11 06:23:38;;;;;;;4.85;3.00;;;;;;;-148.22;100.00;64452.44;5028347;28;20389;-65
2022/07/11 06:26:05;;;;;;;4.03;2.65;;;;;;;-148.22;100.00;64452.44;5026748;28;20420;-65
2022/07/11 06:28:32;;;;;;;3.72;2.58;;;;;;;-148.22;100.00;64452.44;5029692;28;20045;-65
2022/07/11 06:30:59;;;;;;;4.72;2.20;;;;;;;-148.22;100.00;64452.44;5046291;28;20053;-65
2022/07/11 06:33:25;;;;;;;6.40;2.55;;;;;;;-148.22;100.00;64452.44;5044019;28;20048;-65
2022/07/11 06:35:52;;;;;;;3.65;2.40;;;;;;;-148.22;100.00;64452.44;5034641;28;20049;-65
2022/07/11 06:38:19;;;;;;;4.03;2.60;;;;;;;-148.22;100.00;64452.44;5026568;28;20549;-65
2022/07/11 06:40:46;;;;;;;4.50;2.33;;;;;;;-148.22;100.00;64452.44;5024602;28;20059;-65
2022/07/11 06:43:13;;;;;;;3.53;2.13;;;;;;;-148.22;100.00;64452.44;5015531;28;20060;-65
2022/07/11 06:45:40;;;;;;;5.50;1.95;;;;;;;-148.22;100.00;64452.44;5033602;28;20038;-66
2022/07/11 06:48:07;;;;;;;3.58;2.10;;;;;;;-148.22;100.00;64452.44;5038750;28;20576;-65
2022/07/11 06:50:34;;;;;;;5.70;2.47;;;;;;;-148.22;100.00;64452.44;5037761;28;20409;-66
2022/07/11 06:53:00;;;;;;;5.60;2.20;;;;;;;-148.22;100.00;64452.44;5021476;28;20053;-66
2022/07/11 06:55:27;;;;;;;3.38;2.05;;;;;;;-148.22;100.00;64452.44;5018535;28;20420;-66
2022/07/11 06:57:53;;;;;;;3.72;1.90;;;;;;;-148.22;100.00;64452.44;5038508;28;20296;-66
2022/07/11 07:00:40;;;;;;;3.58;1.90;;;;;;;-148.22;100.00;64452.44;5013922;28;20049;-65
2022/07/11 07:03:08;;;;;;;3.85;1.90;;;;;;;-148.22;100.00;64452.44;5027400;28;20127;-65
2022/07/11 07:05:45;;;;;;;4.85;1.95;;;;;;;-148.22;100.00;64452.44;5027297;28;20071;-65
2022/07/11 07:08:12;;;;;;;2.88;1.77;;;;;;;-148.22;100.00;64452.44;5027514;28;20123;-65
2022/07/11 07:10:39;;;;;;;2.90;1.92;;;;;;;-148.22;100.00;64452.44;5025336;28;20077;-65
2022/07/11 07:13:06;;;;;;;4.20;1.88;;;;;;;-148.22;100.00;64452.44;5007860;28;20256;-65
2022/07/11 07:15:32;;;;;;;7.55;1.63;;;;;;;-148.22;100.00;64452.44;5020452;28;20349;-66
2022/07/11 07:17:59;;;;;;;4.05;2.03;;;;;;;-148.22;100.00;64452.44;5010058;28;20042;-66
2022/07/11 07:20:29;;;;;;;3.53;1.67;;;;;;;-148.22;100.00;64452.44;5016184;28;20049;-65
2022/07/11 07:22:56;;;;;;;3.63;2.03;;;;;;;-148.22;100.00;64452.44;5017584;28;20046;-66
2022/07/11 07:25:23;;;;;;;2.17;1.50;;;;;;;-148.22;100.00;64452.44;5018821;28;20034;-66
2022/07/11 07:27:49;;;;;;;3.58;1.70;;;;;;;-148.22;100.00;64452.44;5005081;28;20046;-66
2022/07/11 07:30:16;;;;;;;1.85;1.30;;;;;;;-148.22;100.00;64452.44;5016595;28;20056;-66
2022/07/11 07:32:43;;;;;;;3.38;2.10;;;;;;;-148.22;100.00;64452.44;5021381;28;20052;-65
2022/07/11 07:35:10;;;;;;;3.78;1.70;;;;;;;-148.22;100.00;64452.44;5024616;28;20060;-66
2022/07/11 07:37:36;;;;;;;2.10;1.33;;;;;;;-148.22;100.00;64452.44;5008077;28;20425;-65
2022/07/11 07:40:03;;;;;;;3.10;1.58;;;;;;;-148.22;100.00;64452.44;5023386;28;20046;-66
2022/07/11 07:42:30;;;;;;;2.63;1.60;;;;;;;-148.22;100.00;64452.44;5028778;28;20124;-66
2022/07/11 07:44:57;;;;;;;2.90;1.35;;;;;;;-148.22;100.00;64452.44;5028363;28;20045;-66
2022/07/11 07:47:23;;;;;;;1.67;1.05;;;;;;;-148.22;100.00;64452.44;5012056;28;20049;-66
2022/07/11 07:49:50;;;;;;;2.08;1.27;;;;;;;-148.22;100.00;64452.44;5022968;28;20120;-66
2022/07/11 07:52:17;;;;;;;1.77;1.10;;;;;;;-148.22;100.00;64452.44;5012708;28;20052;-66
2022/07/11 07:54:43;;;;;;;3.78;1.65;;;;;;;-148.22;100.00;64452.44;5020309;28;20045;-66
2022/07/11 07:57:10;;;;;;;2.13;1.17;;;;;;;-148.22;100.00;64452.44;5022432;28;20045;-66
2022/07/11 07:59:36;;;;;;;4.45;1.30;;;;;;;-148.22;100.00;64452.44;5024571;28;20049;-65
2022/07/11 08:02:03;;;;;;;1.13;1.00;;;;;;;-148.22;100.00;64452.44;5033441;28;20052;-65
2022/07/11 08:04:30;;;;;;;1.75;1.17;;;;;;;-148.22;100.00;64452.44;5027003;28;20053;-66
2022/07/11 08:06:59;;;;;;;2.47;1.40;;;;;;;-148.22;100.00;64452.44;5033758;28;20047;-65
2022/07/11 08:09:26;;;;;;;2.40;0.90;;;;;;;-148.22;100.00;64452.44;5030650;28;20448;-65
2022/07/11 08:11:53;;;;;;;1.63;1.08;;;;;;;-148.22;100.00;64452.44;5034685;28;20050;-65
2022/07/11 08:14:19;;;;;;;2.08;1.00;;;;;;;-148.22;100.00;64452.44;5027837;28;20053;-65
2022/07/11 08:16:47;;;;;;;2.38;1.05;;;;;;;-148.22;100.00;64452.44;5033778;28;20062;-65
2022/07/11 08:19:14;;;;;;;1.75;1.02;;;;;;;-148.22;100.00;64452.44;5020755;28;20049;-56
2022/07/11 08:21:41;;;;;;;3.30;1.40;;;;;;;-148.22;100.00;64452.44;5023721;28;20551;-58
2022/07/11 08:24:08;;;;;;;2.45;1.10;;;;;;;-148.22;100.00;64452.44;5023934;28;20268;-54
2022/07/11 08:26:34;;;;;;;2.90;1.00;;;;;;;-148.22;100.00;64452.44;5023974;28;20049;-54
2022/07/11 08:29:03;;;;;;;1.40;0.93;;;;;;;-148.22;100.00;64452.44;5032800;28;20548;-55
2022/07/11 08:31:30;;;;;;;2.40;1.00;;;;;;;-148.22;100.00;64452.44;5010014;28;20045;-56
2022/07/11 08:33:58;;;;;;;3.13;1.00;;;;;;;-148.22;100.00;64452.44;5038730;28;20056;-55
2022/07/11 08:36:27;;;;;;;1.45;0.80;;;;;;;-148.22;100.00;64452.44;5022836;28;20344;-54
2022/07/11 08:38:54;;;;;;;2.35;0.70;;;;;;;-148.22;100.00;64452.44;5018957;28;20088;-55
2022/07/11 08:41:21;;;;;;;1.45;0.70;;;;;;;-148.22;100.00;64452.44;5028235;28;20045;-55
2022/07/11 08:43:49;;;;;;;0.90;0.65;;;;;;;-148.22;100.00;64452.44;5043751;28;20041;-55
2022/07/11 08:46:17;;;;;;;1.85;0.65;;;;;;;-148.22;100.00;64452.44;5029121;28;20531;-54
2022/07/11 08:48:46;;;;;;;1.20;0.80;;;;;;;-148.22;100.00;64452.44;5028130;28;20128;-50
2022/07/11 08:51:13;;;;;;;1.17;0.80;;;;;;;-148.22;100.00;64452.44;5035379;28;20535;-50
2022/07/11 08:53:43;;;;;;;1.38;0.70;;;;;;;-148.22;100.00;64452.44;5037545;28;20052;-52
2022/07/11 08:56:16;;;;;;;1.00;0.68;;;;;;;-148.22;100.00;64452.44;5030497;28;20037;-53
2022/07/11 08:58:45;;;;;;;1.42;0.80;;;;;;;-148.22;100.00;64452.44;5018117;28;20053;-55
2022/07/11 09:01:26;;;;;;;3.25;1.15;;;;;;;-148.22;100.00;64452.44;5027813;28;20052;-55
2022/07/11 09:03:54;;;;;;;2.25;1.10;;;;;;;-148.22;100.00;64452.44;5023418;28;20050;-55
2022/07/11 09:06:21;;;;;;;1.35;0.70;;;;;;;-148.22;100.00;64452.44;5021234;28;19936;-55
2022/07/11 09:08:47;;;;;;;1.98;0.85;;;;;;;-148.22;100.00;64452.44;5016714;28;20045;-53
2022/07/11 09:11:14;;;;;;;1.65;0.80;;;;;;;-148.22;100.00;64452.44;5024456;28;20056;-56
2022/07/11 09:13:41;;;;;;;1.67;0.90;;;;;;;-148.22;100.00;64452.44;5025178;28;20065;-52
2022/07/11 09:16:09;;;;;;;1.48;0.80;;;;;;;-148.22;100.00;64452.44;5022818;28;20044;-48
2022/07/11 09:18:37;;;;;;;2.63;0.80;;;;;;;-148.22;100.00;64452.44;5019960;28;20041;-50
2022/07/11 09:26:43;;;;;;;2.30;0.80;;;;;;;-148.22;100.00;64452.44;5019478;28;20053;-54
2022/07/11 09:29:20;;;;;;;1.17;0.80;;;;;;;-148.22;100.00;64452.44;5029264;28;20041;-55
2022/07/11 09:31:48;;;;;;;0.88;0.70;;;;;;;-148.22;100.00;64452.44;5030202;28;20309;-55
2022/07/11 09:34:17;;;;;;;1.52;0.80;;;;;;;-148.22;100.00;64452.44;5035671;28;20049;-53
2022/07/11 09:36:54;;;;;;;1.50;0.80;;;;;;;-148.22;100.00;64452.44;5030666;28;20049;-51
2022/07/11 09:39:23;;;;;;;1.23;0.73;;;;;;;-148.22;100.00;64452.44;5038015;28;20048;-51
2022/07/11 09:41:52;;;;;;;2.25;0.90;;;;;;;-148.22;100.00;64452.44;5029272;28;20049;-48
2022/07/11 09:44:24;;;;;;;2.58;0.70;;;;;;;-148.22;100.00;64452.44;5038342;28;20052;-51
2022/07/11 09:46:52;;;;;;;2.08;1.00;;;;;;;-148.22;100.00;64452.44;5046305;28;20458;-51
2022/07/11 09:49:36;;;;;;;1.15;0.73;;;;;;;-148.22;100.00;64452.44;5033929;28;20049;-50
2022/07/11 09:52:14;;;;;;;1.65;0.80;;;;;;;-148.22;100.00;64452.44;5015146;28;20053;-47
2022/07/11 09:54:57;;;;;;;3.70;1.00;;;;;;;-148.22;100.00;64452.44;5022288;28;20046;-66
2022/07/11 09:57:35;;;;;;;1.80;1.08;;;;;;;-148.22;100.00;64452.44;5017677;28;20041;-66
2022/07/11 10:00:07;;;;;;;3.50;2.10;;;;;;;-148.22;100.00;64452.44;5027621;28;20130;-66
2022/07/11 10:02:35;;;;;;;3.97;1.05;;;;;;;-148.22;100.00;64452.44;5025124;28;20049;-66
2022/07/11 10:05:03;;;;;;;3.38;1.05;;;;;;;-148.22;100.00;64452.44;5015345;28;20523;-66
2022/07/11 10:07:30;;;;;;;2.75;1.00;;;;;;;-148.22;100.00;64452.44;5028271;28;20048;-66
2022/07/11 10:10:02;;;;;;;2.20;1.00;;;;;;;-148.22;100.00;64452.44;5028183;28;20046;-66
2022/07/11 10:12:31;;;;;;;7.55;1.15;;;;;;;-148.22;100.00;64452.44;5026647;28;20054;-66
2022/07/11 10:15:06;;;;;;;1.90;0.90;;;;;;;-148.22;100.00;64452.44;5026062;28;20116;-66
2022/07/11 10:17:44;;;;;;;3.47;1.50;;;;;;;-148.22;100.00;64452.44;5026381;28;20129;-66
2022/07/11 10:20:20;;;;;;;1.75;1.00;;;;;;;-148.22;100.00;64452.44;5037457;28;20052;-66
2022/07/11 10:23:01;;;;;;;2.53;1.10;;;;;;;-148.22;100.00;64452.44;5039593;28;20048;-66
2022/07/11 10:25:37;;;;;;;4.07;1.30;;;;;;;-148.22;100.00;64452.44;5035524;28;20041;-66
2022/07/11 10:28:25;;;;;;;2.50;1.08;;;;;;;-148.22;100.00;64452.44;5027719;28;20123;-66
2022/07/11 10:30:59;;;;;;;5.20;1.15;;;;;;;-148.22;100.00;64452.44;5019617;28;20045;-66
2022/07/11 10:33:28;;;;;;;2.45;1.45;;;;;;;-148.22;100.00;64452.44;5030448;28;20493;-67
2022/07/11 10:35:56;;;;;;;2.15;1.20;;;;;;;-148.22;100.00;64452.44;5024836;28;20060;-66
2022/07/11 10:38:23;;;;;;;2.15;1.20;;;;;;;-148.22;100.00;64452.44;5017329;28;20516;-66
2022/07/11 10:40:56;;;;;;;1.95;1.15;;;;;;;-148.22;100.00;64452.44;5031164;28;20050;-66
2022/07/11 10:43:39;;;;;;;3.80;1.30;;;;;;;-148.22;100.00;64452.44;5022991;28;20491;-66
2022/07/11 10:46:12;;;;;;;4.00;1.08;;;;;;;-148.22;100.00;64452.44;5016203;28;20413;-66
2022/07/11 10:48:52;;;;;;;8.55;2.08;;;;;;;-148.22;100.00;64452.44;5039284;28;20103;-66
2022/07/11 10:51:26;;;;;;;2.45;1.00;;;;;;;-148.22;100.00;64452.44;5025058;28;20041;-65
2022/07/11 10:53:53;;;;;;;1.95;1.27;;;;;;;-148.22;100.00;64452.44;5010371;28;20045;-64
2022/07/11 10:56:48;;;;;;;2.80;1.30;;;;;;;-148.22;100.00;64452.44;5033572;28;20052;-64
2022/07/11 10:59:21;;;;;;;5.27;1.20;;;;;;;-148.22;100.00;64452.44;4996099;28;20048;-64
2022/07/11 11:02:03;;;;;;;1.70;1.10;;;;;;;-148.22;100.00;64452.44;5018993;28;20297;-64
2022/07/11 11:04:45;;;;;;;1.73;1.00;;;;;;;-148.22;100.00;64452.44;5006537;28;20045;-64
2022/07/11 11:07:30;;;;;;;1.40;1.10;;;;;;;-148.22;100.00;64452.44;5035708;28;20045;-64
2022/07/11 11:09:57;;;;;;;1.85;1.10;;;;;;;-148.22;100.00;64452.44;5023213;28;20471;-64
2022/07/11 11:13:05;;;;;;;2.97;1.10;;;;;;;-148.22;100.00;64452.44;5036917;28;20068;-64
2022/07/11 11:15:32;;;;;;;2.15;1.20;;;;;;;-148.22;100.00;64452.44;5017303;28;20421;-64
2022/07/11 11:18:22;;;;;;;2.30;1.23;;;;;;;-148.22;100.00;64452.44;5012330;28;20048;-64
2022/07/11 11:20:57;;;;;;;2.58;1.13;;;;;;;-148.22;100.00;64452.44;5036024;28;20044;-64